Reklama
Líbí se Vám tento web? Budeme velmi rádi, pokud přidáte hodnocení +1

Seznam meteostanic a jejich METAR

Vyhledat místa podle abecedy:
A B C D E F G H I J K L M N O P Q R S T U V W X Y Z

Filtrovat:

ID stanice:
a/nebo
Název místa (fulltext):
 
Místo (ID)Naposledy načteno 
Zadar (LDZD) 21.06.2018 02:00 UTC Zobrazit METAR
LDZD 210200Z 11001KT CAVOK 17/15 Q1017 NOSIG
Zagreb (LDZA) 21.06.2018 02:00 UTC Zobrazit METAR
LDZA 210200Z 00000KT CAVOK 17/16 Q1017 NOSIG
Zaragoza (LEZG) 21.06.2018 02:00 UTC Zobrazit METAR
LEZG 210200Z 08005KT CAVOK 21/12 Q1018
Zhezkazgan (UAKD) Zatím nenačteno  
Zurich (LSZH) 21.06.2018 01:50 UTC Zobrazit METAR
LSZH 210150Z 00000KT CAVOK 16/14 Q1018 NOSIG
Reklama

Počasí na Váš email

Emaily jsou bez reklamy a bez spamu



Odhlásit newsletter

Reklama


Lunární kalendář

  • 28.06.
  • 06.07.
  • 13.07.
  • 19.07.



Slunečno.cz na Google+

Reklama


Reklama
Povinné ručení
Reklama




Reklama